Brileytown, Texas
Current Conditions -  °F | °C
As of 10:55 PM on Thursday 30 Oct 2014 (Local Time) from KOCH Reporting Station
Scattered Clouds Scattered Clouds  
Wind Chill: 54°   Ceiling: Unl
Heat Index: 54°   Visibility: 10mi
Dew Point: 48°   Wind: 0mph
Humidity: 82%   Direction: NA
Pressure: 30.12"   Gusts: NA
Location:  31.7931°N, 94.5281°W
Report Text: KOCH 310355Z AUTO 00000KT 10SM FEW080 SCT120 12/09 A3012 RMK AO1
Loading
Personal Weather Stations






























Interactive Weather Map
Tropical Storm Tracking
New forecast layout! Learn more

10-Day Weather Forecast

Advertisements
Track Severe Weather on mobile